Terminal Aerodrome Forecast
Issued by NWS Springfield, MO

Home | Current Version | Previous Version | Text Only | Print | Product List | Glossary On
Versions: 1 2 3 4 5 6 7 8 9 10 11 12 13 14 15 16 17 18 19 20 21 22 23
000
FTUS43 KSGF 011200 AAA
TAFSGF
TAF AMD
KSGF 011203Z 0112/0212 12011KT P6SM BKN025 OVC035 WS020/24035KT
     FM011300 18010G18KT P6SM SCT050 BKN200
     FM012000 20014G21KT P6SM BKN250
     FM020200 18012G20KT P6SM VCTS SCT040CB OVC100
     FM020700 20015KT P6SM VCTS SCT040CB OVC100 WS020/24047KT=

USA.gov is the U.S. government's official web portal to all federal, state and local government web resources and services.